WJA332 CYVR-CYLW
Flight info
| Callsign | WJA332 |
|---|---|
| Flight time | 0h 43m |
| Altitude | 29000 |
| Route | JANEK DCT SEKAB SEKAB5 |
| Aircraft | B737/M-SDE2E3FGHIRWXY/LB1 |
Departure
| Time | 2026-05-07 05:19 |
|---|---|
| Airport | Vancouver International Airport (CYVR) |
Arrival
| Time | 2026-05-07 06:03 |
|---|---|
| Airport | Kelowna International Airport (CYLW) |
| Time | Latitude | Longitude | Altitude | Speed | Heading |
|---|---|---|---|---|---|
| 2026-05-07 04:46 | 49.19172 | -123.18096 | 17 ft | 0 kts | 11° |
| 2026-05-07 05:04 | 49.19164 | -123.18098 | 17 ft | 2 kts | 11° |
| 2026-05-07 05:04 | 49.19148 | -123.18103 | 18 ft | 2 kts | 14° |
| 2026-05-07 05:05 | 49.19132 | -123.18110 | 17 ft | 2 kts | 20° |
| 2026-05-07 05:05 | 49.19118 | -123.18122 | 17 ft | 2 kts | 58° |
| 2026-05-07 05:05 | 49.19115 | -123.18139 | 17 ft | 1 kts | 99° |
| 2026-05-07 05:05 | 49.19115 | -123.18140 | 17 ft | 0 kts | 100° |
| 2026-05-07 05:12 | 49.19112 | -123.18138 | 17 ft | 1 kts | 146° |
| 2026-05-07 05:13 | 49.19108 | -123.18145 | 21 ft | 1 kts | 226° |
| 2026-05-07 05:13 | 49.19114 | -123.18165 | 17 ft | 3 kts | 311° |
| 2026-05-07 05:13 | 49.19121 | -123.18213 | 17 ft | 6 kts | 278° |
| 2026-05-07 05:13 | 49.19123 | -123.18297 | 17 ft | 9 kts | 266° |
| 2026-05-07 05:14 | 49.19109 | -123.18394 | 17 ft | 9 kts | 256° |
| 2026-05-07 05:14 | 49.19128 | -123.18484 | 17 ft | 9 kts | 320° |
| 2026-05-07 05:14 | 49.19157 | -123.18562 | 17 ft | 9 kts | 255° |
| 2026-05-07 05:14 | 49.19142 | -123.18651 | 17 ft | 9 kts | 284° |
| 2026-05-07 05:15 | 49.19186 | -123.18719 | 18 ft | 10 kts | 321° |
| 2026-05-07 05:15 | 49.19245 | -123.18791 | 16 ft | 12 kts | 321° |
| 2026-05-07 05:15 | 49.19318 | -123.18880 | 17 ft | 15 kts | 322° |
| 2026-05-07 05:15 | 49.19361 | -123.19014 | 16 ft | 15 kts | 261° |
| 2026-05-07 05:16 | 49.19341 | -123.19168 | 16 ft | 14 kts | 258° |
| 2026-05-07 05:16 | 49.19322 | -123.19325 | 14 ft | 17 kts | 259° |
| 2026-05-07 05:16 | 49.19299 | -123.19512 | 15 ft | 18 kts | 259° |
| 2026-05-07 05:16 | 49.19277 | -123.19695 | 16 ft | 17 kts | 259° |
| 2026-05-07 05:17 | 49.19255 | -123.19872 | 15 ft | 17 kts | 259° |
| 2026-05-07 05:17 | 49.19232 | -123.20055 | 15 ft | 17 kts | 259° |
| 2026-05-07 05:17 | 49.19211 | -123.20228 | 15 ft | 16 kts | 260° |
| 2026-05-07 05:17 | 49.19189 | -123.20376 | 15 ft | 14 kts | 244° |
| 2026-05-07 05:18 | 49.19108 | -123.20434 | 16 ft | 13 kts | 190° |
| 2026-05-07 05:18 | 49.19020 | -123.20451 | 16 ft | 13 kts | 175° |
| 2026-05-07 05:18 | 49.18962 | -123.20354 | 18 ft | 13 kts | 102° |
| 2026-05-07 05:18 | 49.18934 | -123.20114 | 17 ft | 51 kts | 100° |
| 2026-05-07 05:19 | 49.18827 | -123.19176 | 17 ft | 125 kts | 100° |
| 2026-05-07 05:19 | 49.18638 | -123.17570 | 129 ft | 175 kts | 101° |
| 2026-05-07 05:19 | 49.18404 | -123.15642 | 844 ft | 191 kts | 101° |
| 2026-05-07 05:19 | 49.18144 | -123.13584 | 1684 ft | 203 kts | 102° |
| 2026-05-07 05:20 | 49.17845 | -123.11439 | 2414 ft | 218 kts | 104° |
| 2026-05-07 05:20 | 49.17528 | -123.09063 | 3043 ft | 238 kts | 100° |
| 2026-05-07 05:20 | 49.17266 | -123.06487 | 3779 ft | 254 kts | 98° |
| 2026-05-07 05:20 | 49.16996 | -123.03736 | 4557 ft | 267 kts | 98° |
| 2026-05-07 05:21 | 49.16711 | -123.00891 | 5483 ft | 274 kts | 98° |
| 2026-05-07 05:21 | 49.16102 | -122.95047 | 7324 ft | 284 kts | 98° |
| 2026-05-07 05:21 | 49.15781 | -122.92062 | 8069 ft | 286 kts | 98° |
| 2026-05-07 05:22 | 49.15809 | -122.89043 | 8795 ft | 286 kts | 70° |
| 2026-05-07 05:22 | 49.16877 | -122.86533 | 9655 ft | 285 kts | 38° |
| 2026-05-07 05:22 | 49.18504 | -122.84895 | 10481 ft | 285 kts | 28° |
| 2026-05-07 05:22 | 49.20234 | -122.83362 | 11260 ft | 290 kts | 28° |
| 2026-05-07 05:23 | 49.21962 | -122.81738 | 12054 ft | 293 kts | 30° |
| 2026-05-07 05:23 | 49.23671 | -122.79997 | 12861 ft | 297 kts | 32° |
| 2026-05-07 05:23 | 49.25361 | -122.78155 | 13702 ft | 299 kts | 34° |
| 2026-05-07 05:23 | 49.27033 | -122.76238 | 14471 ft | 301 kts | 34° |
| 2026-05-07 05:24 | 49.28700 | -122.74257 | 15238 ft | 306 kts | 35° |
| 2026-05-07 05:24 | 49.30394 | -122.72196 | 15735 ft | 312 kts | 35° |
| 2026-05-07 05:24 | 49.32088 | -122.70097 | 16002 ft | 320 kts | 36° |
| 2026-05-07 05:24 | 49.33859 | -122.67885 | 16154 ft | 345 kts | 36° |
| 2026-05-07 05:25 | 49.35776 | -122.65473 | 16395 ft | 366 kts | 37° |
| 2026-05-07 05:25 | 49.37773 | -122.62936 | 16924 ft | 377 kts | 37° |
| 2026-05-07 05:25 | 49.39805 | -122.60336 | 17664 ft | 383 kts | 37° |
| 2026-05-07 05:25 | 49.41852 | -122.57684 | 18418 ft | 386 kts | 36° |
| 2026-05-07 05:26 | 49.43922 | -122.55023 | 19116 ft | 390 kts | 36° |
| 2026-05-07 05:26 | 49.46019 | -122.52335 | 19762 ft | 395 kts | 36° |
| 2026-05-07 05:26 | 49.48139 | -122.49611 | 20407 ft | 399 kts | 36° |
| 2026-05-07 05:26 | 49.50282 | -122.46852 | 21051 ft | 404 kts | 36° |
| 2026-05-07 05:27 | 49.52417 | -122.44098 | 21724 ft | 408 kts | 35° |
| 2026-05-07 05:27 | 49.54605 | -122.41276 | 22316 ft | 413 kts | 35° |
| 2026-05-07 05:27 | 49.56817 | -122.38427 | 22982 ft | 417 kts | 35° |
| 2026-05-07 05:27 | 49.59046 | -122.35538 | 23561 ft | 421 kts | 35° |
| 2026-05-07 05:28 | 49.61293 | -122.32611 | 24044 ft | 425 kts | 35° |
| 2026-05-07 05:28 | 49.63556 | -122.29664 | 24562 ft | 428 kts | 34° |
| 2026-05-07 05:28 | 49.65842 | -122.26688 | 25065 ft | 431 kts | 34° |
| 2026-05-07 05:28 | 49.68145 | -122.23720 | 25630 ft | 433 kts | 34° |
| 2026-05-07 05:29 | 49.70429 | -122.20735 | 26069 ft | 438 kts | 34° |
| 2026-05-07 05:29 | 49.72764 | -122.17683 | 26494 ft | 443 kts | 34° |
| 2026-05-07 05:29 | 49.75123 | -122.14608 | 27000 ft | 444 kts | 34° |
| 2026-05-07 05:29 | 49.77482 | -122.11517 | 27558 ft | 445 kts | 33° |
| 2026-05-07 05:30 | 49.79838 | -122.08418 | 28177 ft | 444 kts | 33° |
| 2026-05-07 05:30 | 49.82185 | -122.05325 | 28850 ft | 442 kts | 33° |
| 2026-05-07 05:30 | 49.84528 | -122.02247 | 29090 ft | 440 kts | 33° |
| 2026-05-07 05:31 | 49.89195 | -121.96103 | 29084 ft | 442 kts | 33° |
| 2026-05-07 05:31 | 49.93839 | -121.89980 | 29093 ft | 442 kts | 33° |
| 2026-05-07 05:32 | 49.98522 | -121.83785 | 29101 ft | 442 kts | 33° |
| 2026-05-07 05:32 | 50.03200 | -121.77555 | 29081 ft | 443 kts | 33° |
| 2026-05-07 05:33 | 50.07539 | -121.70654 | 29069 ft | 463 kts | 54° |
| 2026-05-07 05:33 | 50.08731 | -121.65924 | 29039 ft | 479 kts | 73° |
| 2026-05-07 05:33 | 50.09011 | -121.60793 | 29068 ft | 485 kts | 85° |
| 2026-05-07 05:34 | 50.08946 | -121.50274 | 28477 ft | 484 kts | 88° |
| 2026-05-07 05:34 | 50.08873 | -121.45069 | 27931 ft | 478 kts | 87° |
| 2026-05-07 05:34 | 50.08816 | -121.39932 | 27427 ft | 471 kts | 87° |
| 2026-05-07 05:34 | 50.08779 | -121.34867 | 26893 ft | 465 kts | 86° |
| 2026-05-07 05:35 | 50.08757 | -121.29860 | 26359 ft | 459 kts | 86° |
| 2026-05-07 05:35 | 50.08743 | -121.24923 | 25821 ft | 453 kts | 86° |
| 2026-05-07 05:35 | 50.08731 | -121.20115 | 25330 ft | 448 kts | 86° |
| 2026-05-07 05:35 | 50.08717 | -121.15283 | 24827 ft | 444 kts | 86° |
| 2026-05-07 05:36 | 50.08702 | -121.10500 | 24303 ft | 440 kts | 87° |
| 2026-05-07 05:36 | 50.08683 | -121.05752 | 23773 ft | 436 kts | 87° |
| 2026-05-07 05:36 | 50.08662 | -121.01049 | 23204 ft | 432 kts | 87° |
| 2026-05-07 05:36 | 50.08638 | -120.96397 | 22631 ft | 428 kts | 87° |
| 2026-05-07 05:37 | 50.08612 | -120.91798 | 22117 ft | 422 kts | 87° |
| 2026-05-07 05:37 | 50.08586 | -120.87268 | 21594 ft | 416 kts | 87° |
| 2026-05-07 05:37 | 50.08559 | -120.82793 | 21089 ft | 411 kts | 88° |
| 2026-05-07 05:37 | 50.08531 | -120.78430 | 20593 ft | 407 kts | 88° |
| 2026-05-07 05:38 | 50.08500 | -120.74052 | 20135 ft | 401 kts | 88° |
| 2026-05-07 05:38 | 50.08466 | -120.69777 | 19905 ft | 390 kts | 88° |
| 2026-05-07 05:38 | 50.08431 | -120.65586 | 19517 ft | 385 kts | 88° |
| 2026-05-07 05:38 | 50.08397 | -120.61433 | 19038 ft | 382 kts | 88° |
| 2026-05-07 05:39 | 50.08361 | -120.57313 | 18558 ft | 379 kts | 88° |
| 2026-05-07 05:39 | 50.08325 | -120.53219 | 18026 ft | 377 kts | 88° |
| 2026-05-07 05:39 | 50.08288 | -120.49159 | 17516 ft | 373 kts | 88° |
| 2026-05-07 05:39 | 50.08249 | -120.45195 | 17011 ft | 370 kts | 88° |
| 2026-05-07 05:40 | 50.08209 | -120.41210 | 16495 ft | 366 kts | 88° |
| 2026-05-07 05:40 | 50.08169 | -120.37260 | 15991 ft | 363 kts | 88° |
| 2026-05-07 05:40 | 50.08128 | -120.33352 | 15508 ft | 360 kts | 89° |
| 2026-05-07 05:40 | 50.08086 | -120.29473 | 15026 ft | 357 kts | 88° |
| 2026-05-07 05:41 | 50.08043 | -120.25619 | 14544 ft | 355 kts | 88° |
| 2026-05-07 05:41 | 50.07998 | -120.21786 | 14040 ft | 353 kts | 89° |
| 2026-05-07 05:41 | 50.07952 | -120.17982 | 13520 ft | 350 kts | 87° |
| 2026-05-07 05:41 | 50.07906 | -120.14257 | 12996 ft | 347 kts | 88° |
| 2026-05-07 05:42 | 50.07859 | -120.10521 | 12516 ft | 344 kts | 88° |
| 2026-05-07 05:42 | 50.07813 | -120.06816 | 12022 ft | 341 kts | 86° |
| 2026-05-07 05:42 | 50.07764 | -120.03143 | 11541 ft | 338 kts | 86° |
| 2026-05-07 05:42 | 50.07716 | -119.99496 | 11040 ft | 335 kts | 87° |
| 2026-05-07 05:43 | 50.07665 | -119.95885 | 10568 ft | 333 kts | 87° |
| 2026-05-07 05:43 | 50.07612 | -119.92332 | 10352 ft | 321 kts | 87° |
| 2026-05-07 05:43 | 50.07560 | -119.88926 | 10172 ft | 308 kts | 87° |
| 2026-05-07 05:43 | 50.07511 | -119.85671 | 10057 ft | 294 kts | 86° |
| 2026-05-07 05:44 | 50.07465 | -119.82572 | 9839 ft | 287 kts | 86° |
| 2026-05-07 05:44 | 50.07422 | -119.79538 | 9737 ft | 275 kts | 86° |
| 2026-05-07 05:44 | 50.07375 | -119.76616 | 9618 ft | 265 kts | 86° |
| 2026-05-07 05:44 | 50.07483 | -119.73833 | 9488 ft | 250 kts | 66° |
| 2026-05-07 05:45 | 50.08315 | -119.71612 | 9532 ft | 233 kts | 42° |
| 2026-05-07 05:45 | 50.09547 | -119.70074 | 9500 ft | 222 kts | 25° |
| 2026-05-07 05:45 | 50.10876 | -119.68931 | 9492 ft | 216 kts | 24° |
| 2026-05-07 05:45 | 50.12198 | -119.67826 | 9426 ft | 217 kts | 24° |
| 2026-05-07 05:46 | 50.13520 | -119.66723 | 9241 ft | 214 kts | 24° |
| 2026-05-07 05:46 | 50.14857 | -119.65605 | 8744 ft | 225 kts | 24° |
| 2026-05-07 05:46 | 50.16242 | -119.64438 | 8352 ft | 227 kts | 25° |
| 2026-05-07 05:46 | 50.17627 | -119.63263 | 8095 ft | 228 kts | 25° |
| 2026-05-07 05:47 | 50.19019 | -119.62080 | 7909 ft | 228 kts | 25° |
| 2026-05-07 05:47 | 50.20414 | -119.60893 | 7699 ft | 229 kts | 25° |
| 2026-05-07 05:47 | 50.21806 | -119.59707 | 7507 ft | 226 kts | 26° |
| 2026-05-07 05:47 | 50.23155 | -119.58553 | 7306 ft | 215 kts | 26° |
| 2026-05-07 05:48 | 50.24220 | -119.56992 | 7084 ft | 213 kts | 61° |
| 2026-05-07 05:48 | 50.24637 | -119.54853 | 6953 ft | 209 kts | 79° |
| 2026-05-07 05:48 | 50.24785 | -119.52589 | 6785 ft | 210 kts | 83° |
| 2026-05-07 05:48 | 50.24902 | -119.50320 | 6605 ft | 209 kts | 83° |
| 2026-05-07 05:49 | 50.25022 | -119.48062 | 6431 ft | 207 kts | 83° |
| 2026-05-07 05:49 | 50.25103 | -119.45823 | 6239 ft | 207 kts | 95° |
| 2026-05-07 05:49 | 50.24612 | -119.43741 | 6073 ft | 205 kts | 124° |
| 2026-05-07 05:49 | 50.23586 | -119.42176 | 5919 ft | 215 kts | 150° |
| 2026-05-07 05:50 | 50.22152 | -119.41377 | 5727 ft | 225 kts | 174° |
| 2026-05-07 05:50 | 50.20610 | -119.41155 | 5546 ft | 227 kts | 178° |
| 2026-05-07 05:50 | 50.19037 | -119.40961 | 5356 ft | 226 kts | 179° |
| 2026-05-07 05:50 | 50.17484 | -119.40798 | 5140 ft | 220 kts | 177° |
| 2026-05-07 05:51 | 50.15986 | -119.40601 | 4949 ft | 210 kts | 174° |
| 2026-05-07 05:51 | 50.15577 | -119.40544 | 4897 ft | 207 kts | 174° |
| 2026-05-07 05:55 | 50.14197 | -119.40350 | 4712 ft | 197 kts | 174° |
| 2026-05-07 05:55 | 50.12864 | -119.40165 | 4539 ft | 187 kts | 174° |
| 2026-05-07 05:55 | 50.11588 | -119.39988 | 4411 ft | 182 kts | 174° |
| 2026-05-07 05:56 | 50.10347 | -119.39815 | 4244 ft | 174 kts | 175° |
| 2026-05-07 05:56 | 50.09179 | -119.39653 | 4059 ft | 170 kts | 176° |
| 2026-05-07 05:56 | 50.08013 | -119.39492 | 3818 ft | 166 kts | 176° |
| 2026-05-07 05:56 | 50.06882 | -119.39335 | 3601 ft | 160 kts | 176° |
| 2026-05-07 05:57 | 50.05785 | -119.39183 | 3376 ft | 156 kts | 176° |
| 2026-05-07 05:57 | 50.04746 | -119.39038 | 3161 ft | 144 kts | 176° |
| 2026-05-07 05:57 | 50.03792 | -119.38906 | 2961 ft | 132 kts | 176° |
| 2026-05-07 05:57 | 50.02878 | -119.38779 | 2802 ft | 134 kts | 176° |
| 2026-05-07 05:58 | 50.02411 | -119.38715 | 2693 ft | 137 kts | 176° |
| 2026-05-07 06:01 | 50.02052 | -119.38665 | 2622 ft | 137 kts | 176° |
| 2026-05-07 06:01 | 50.01108 | -119.38555 | 2404 ft | 136 kts | 177° |
| 2026-05-07 06:01 | 50.00176 | -119.38465 | 2209 ft | 131 kts | 174° |
| 2026-05-07 06:01 | 49.99273 | -119.38312 | 1986 ft | 127 kts | 175° |
| 2026-05-07 06:02 | 49.98424 | -119.38157 | 1811 ft | 123 kts | 173° |
| 2026-05-07 06:02 | 49.97595 | -119.38049 | 1613 ft | 121 kts | 174° |
| 2026-05-07 06:02 | 49.96735 | -119.37931 | 1464 ft | 125 kts | 174° |
| 2026-05-07 06:02 | 49.95913 | -119.37821 | 1397 ft | 112 kts | 175° |
| 2026-05-07 06:03 | 49.95288 | -119.37735 | 1373 ft | 68 kts | 175° |
| 2026-05-07 06:03 | 49.94963 | -119.37689 | 1371 ft | 25 kts | 175° |
| 2026-05-07 06:03 | 49.94823 | -119.37670 | 1369 ft | 19 kts | 175° |
| 2026-05-07 06:03 | 49.94767 | -119.37727 | 1367 ft | 11 kts | 285° |
| 2026-05-07 06:04 | 49.94808 | -119.37797 | 1367 ft | 7 kts | 328° |
| 2026-05-07 06:04 | 49.94858 | -119.37815 | 1368 ft | 7 kts | 354° |
| 2026-05-07 06:04 | 49.94907 | -119.37823 | 1368 ft | 7 kts | 354° |
| 2026-05-07 06:04 | 49.94949 | -119.37836 | 1370 ft | 6 kts | 328° |
| 2026-05-07 06:05 | 49.94971 | -119.37890 | 1370 ft | 6 kts | 300° |
| 2026-05-07 06:05 | 49.94992 | -119.37946 | 1371 ft | 6 kts | 300° |
| 2026-05-07 06:05 | 49.95014 | -119.38000 | 1371 ft | 6 kts | 302° |
| 2026-05-07 06:05 | 49.95019 | -119.38013 | 1371 ft | 0 kts | 302° |
| 2026-05-07 06:09 | 49.99134 | -119.38292 | 1961 ft | 125 kts | 175° |
| 2026-05-07 06:09 | 49.98018 | -119.38094 | 1727 ft | 118 kts | 176° |
| 2026-05-07 06:09 | 49.97181 | -119.37993 | 1524 ft | 125 kts | 174° |
| 2026-05-07 06:09 | 49.96317 | -119.37877 | 1412 ft | 121 kts | 174° |
| 2026-05-07 06:10 | 49.95562 | -119.37772 | 1380 ft | 90 kts | 174° |
| 2026-05-07 06:10 | 49.95959 | -119.37828 | 1396 ft | 114 kts | 175° |